createdAt,value
2022-09-12T00:01:24.168Z,17.12
2022-09-12T00:03:55.737Z,17.18
2022-09-12T00:06:31.101Z,17.16
2022-09-12T00:09:00.082Z,17.08
2022-09-12T00:11:26.770Z,17.10
2022-09-12T00:14:00.043Z,17.07
2022-09-12T00:16:28.436Z,17.06
2022-09-12T00:18:55.046Z,16.99
2022-09-12T00:21:22.593Z,17.00
2022-09-12T00:23:50.449Z,16.99
2022-09-12T00:26:18.155Z,17.01
2022-09-12T00:28:45.381Z,16.98
2022-09-12T00:31:14.899Z,16.96
2022-09-12T00:33:42.148Z,16.89
2022-09-12T00:36:12.012Z,16.89
2022-09-12T00:38:41.859Z,16.84
2022-09-12T00:41:23.407Z,16.84
2022-09-12T00:43:53.027Z,16.80
2022-09-12T00:46:41.819Z,16.81
2022-09-12T00:49:15.879Z,16.75
2022-09-12T00:51:54.320Z,16.73
2022-09-12T00:54:32.496Z,16.69
2022-09-12T00:57:03.877Z,16.65
2022-09-12T00:59:40.401Z,16.66
2022-09-12T01:02:07.763Z,16.62
2022-09-12T01:04:36.907Z,16.54
2022-09-12T01:07:05.261Z,16.52
2022-09-12T01:09:32.039Z,16.47
2022-09-12T01:12:01.155Z,16.42
2022-09-12T01:14:29.321Z,16.44
2022-09-12T01:16:55.932Z,16.41
2022-09-12T01:20:17.692Z,16.47
2022-09-12T01:23:05.832Z,16.45
2022-09-12T01:25:34.854Z,16.35
2022-09-12T01:28:22.718Z,16.36
2022-09-12T01:31:26.812Z,16.41
2022-09-12T01:34:08.917Z,16.31
2022-09-12T01:37:07.639Z,16.40
2022-09-12T01:40:16.787Z,16.30
2022-09-12T01:43:02.151Z,16.19
2022-09-12T01:45:53.202Z,16.11
2022-09-12T01:48:24.495Z,16.13
2022-09-12T01:50:57.055Z,16.05
2022-09-12T01:53:33.511Z,16.04
2022-09-12T01:56:15.976Z,16.07
2022-09-12T01:59:01.144Z,16.03
2022-09-12T02:01:33.914Z,15.99
2022-09-12T02:04:08.933Z,16.04
2022-09-12T02:06:43.652Z,15.95
2022-09-12T02:09:22.601Z,15.98
2022-09-12T02:11:52.385Z,15.97
2022-09-12T02:14:24.283Z,15.89
2022-09-12T02:17:00.175Z,15.88
2022-09-12T02:19:47.254Z,15.92
2022-09-12T02:22:17.558Z,15.80
2022-09-12T02:24:47.789Z,15.70
2022-09-12T02:27:18.104Z,15.73
2022-09-12T02:29:44.965Z,15.64
2022-09-12T02:32:29.716Z,15.69
2022-09-12T02:35:11.194Z,15.68
2022-09-12T02:37:54.434Z,15.66
2022-09-12T02:40:21.024Z,15.61
2022-09-12T02:42:47.520Z,15.60
2022-09-12T02:45:14.094Z,15.56
2022-09-12T02:47:47.393Z,15.56
2022-09-12T02:50:14.212Z,15.59
2022-09-12T02:52:41.191Z,15.61
2022-09-12T02:55:07.987Z,15.59
2022-09-12T02:57:34.452Z,15.61
2022-09-12T03:00:02.039Z,15.54
2022-09-12T03:02:57.306Z,15.60
2022-09-12T03:05:32.964Z,15.51
2022-09-12T03:08:21.993Z,15.56
2022-09-12T03:11:23.748Z,15.57
2022-09-12T03:14:29.643Z,15.56
2022-09-12T03:16:56.047Z,15.40
2022-09-12T03:19:44.435Z,15.33
2022-09-12T03:22:10.870Z,15.37
2022-09-12T03:24:58.286Z,15.33
2022-09-12T03:27:34.144Z,15.34
2022-09-12T03:30:01.655Z,15.38
2022-09-12T03:32:48.277Z,15.38
2022-09-12T03:35:22.257Z,15.31
2022-09-12T03:37:50.673Z,15.27
2022-09-12T03:40:17.248Z,15.26
2022-09-12T03:42:43.788Z,15.32
2022-09-12T03:45:10.583Z,15.27
2022-09-12T03:47:37.396Z,15.21
2022-09-12T03:50:04.649Z,15.16
2022-09-12T03:52:31.109Z,15.19
2022-09-12T03:54:57.600Z,15.17
2022-09-12T03:57:24.104Z,15.15
2022-09-12T03:59:50.673Z,15.12
2022-09-12T04:02:17.560Z,15.15
2022-09-12T04:04:44.420Z,15.11
2022-09-12T04:07:11.527Z,15.14
2022-09-12T04:09:38.059Z,15.15
2022-09-12T04:12:05.205Z,15.09
2022-09-12T04:14:31.672Z,15.08
2022-09-12T04:16:58.349Z,15.09
2022-09-12T04:19:26.304Z,15.12
2022-09-12T04:21:52.960Z,15.08
2022-09-12T04:24:19.467Z,15.10
2022-09-12T04:26:45.910Z,15.09
2022-09-12T04:29:12.907Z,15.07
2022-09-12T04:31:39.424Z,15.06
2022-09-12T04:34:05.891Z,15.02
2022-09-12T04:36:34.188Z,15.02
2022-09-12T04:39:02.019Z,14.91
2022-09-12T04:41:31.407Z,14.96
2022-09-12T04:44:04.069Z,14.94
2022-09-12T04:46:33.413Z,14.97
2022-09-12T04:49:00.237Z,14.89
2022-09-12T04:51:29.538Z,14.91
2022-09-12T04:53:59.785Z,14.85
2022-09-12T04:56:27.001Z,14.90
2022-09-12T04:58:53.563Z,14.88
2022-09-12T05:01:22.325Z,14.85
2022-09-12T05:03:50.471Z,14.88
2022-09-12T05:06:29.037Z,14.90
2022-09-12T05:08:57.296Z,14.88
2022-09-12T05:11:36.747Z,14.83
2022-09-12T05:14:13.180Z,14.85
2022-09-12T05:16:41.169Z,14.83
2022-09-12T05:19:07.749Z,14.80
2022-09-12T05:21:34.225Z,14.83
2022-09-12T05:24:01.035Z,14.81
2022-09-12T05:26:27.758Z,14.78
2022-09-12T05:28:54.733Z,14.73
2022-09-12T05:31:23.793Z,14.75
2022-09-12T05:33:51.949Z,14.76
2022-09-12T05:36:23.957Z,14.74
2022-09-12T05:38:50.952Z,14.66
2022-09-12T05:41:24.202Z,14.72
2022-09-12T05:43:53.493Z,14.76
2022-09-12T05:46:21.803Z,14.75
2022-09-12T05:48:55.152Z,14.72
2022-09-12T05:51:27.968Z,14.70
2022-09-12T05:53:59.784Z,14.73
2022-09-12T05:56:27.297Z,14.95
2022-09-12T05:59:02.627Z,14.75
2022-09-12T06:01:30.970Z,14.75
2022-09-12T06:04:00.805Z,14.74
2022-09-12T06:06:28.972Z,14.72
2022-09-12T06:09:01.106Z,14.73
2022-09-12T06:11:31.052Z,14.75
2022-09-12T06:13:58.320Z,14.76
2022-09-12T06:16:27.477Z,14.76
2022-09-12T06:18:56.344Z,14.75
2022-09-12T06:21:24.389Z,14.73
2022-09-12T06:23:51.081Z,14.75
2022-09-12T06:26:21.374Z,14.69
2022-09-12T06:28:47.988Z,14.71
2022-09-12T06:31:18.421Z,14.68
2022-09-12T06:33:50.016Z,14.68
2022-09-12T06:36:21.579Z,14.69
2022-09-12T06:38:48.800Z,14.69
2022-09-12T06:41:15.921Z,14.66
2022-09-12T06:43:42.832Z,14.66
2022-09-12T06:46:10.541Z,14.64
2022-09-12T06:48:41.547Z,14.62
2022-09-12T06:51:16.840Z,14.63
2022-09-12T06:53:44.687Z,14.67
2022-09-12T06:56:13.632Z,14.64
2022-09-12T06:58:40.883Z,14.75
2022-09-12T07:01:10.508Z,14.67
2022-09-12T07:03:38.178Z,14.70
2022-09-12T07:06:09.651Z,14.80
2022-09-12T07:08:37.258Z,14.81
2022-09-12T07:11:14.844Z,14.90
2022-09-12T07:13:43.097Z,14.93
2022-09-12T07:16:10.650Z,14.93
2022-09-12T07:18:38.793Z,14.97
2022-09-12T07:21:07.702Z,14.89
2022-09-12T07:23:34.188Z,15.01
2022-09-12T07:26:01.110Z,15.07
2022-09-12T07:28:30.499Z,15.07
2022-09-12T07:30:57.319Z,15.09
2022-09-12T07:33:27.125Z,15.12
2022-09-12T07:35:56.458Z,15.11
2022-09-12T07:38:23.177Z,15.17
2022-09-12T07:40:50.123Z,15.24
2022-09-12T07:43:16.592Z,15.32
2022-09-12T07:45:43.366Z,15.36
2022-09-12T07:48:09.904Z,15.40
2022-09-12T07:50:36.691Z,15.45
2022-09-12T07:53:04.060Z,15.49
2022-09-12T07:55:30.797Z,15.55
2022-09-12T07:57:57.250Z,15.56
2022-09-12T08:00:23.713Z,15.66
2022-09-12T08:02:53.956Z,15.68
2022-09-12T08:05:20.826Z,15.74
2022-09-12T08:07:47.550Z,15.80
2022-09-12T08:10:14.053Z,15.84
2022-09-12T08:12:40.515Z,15.92
2022-09-12T08:15:07.272Z,16.02
2022-09-12T08:17:33.740Z,16.05
2022-09-12T08:20:00.214Z,16.08
2022-09-12T08:22:26.672Z,16.12
2022-09-12T08:24:53.573Z,16.18
2022-09-12T08:27:20.027Z,16.23
2022-09-12T08:29:46.480Z,16.28
2022-09-12T08:32:12.977Z,16.29
2022-09-12T08:34:39.487Z,16.35
2022-09-12T08:37:06.070Z,16.42
2022-09-12T08:39:33.185Z,16.44
2022-09-12T08:42:04.823Z,16.53
2022-09-12T08:44:50.106Z,16.60
2022-09-12T08:47:45.000Z,16.70
2022-09-12T08:50:11.684Z,16.87
2022-09-12T08:52:51.834Z,16.91
2022-09-12T08:55:27.080Z,16.96
2022-09-12T08:57:54.340Z,17.05
2022-09-12T09:00:21.584Z,17.17
2022-09-12T09:02:48.153Z,17.15
2022-09-12T09:05:37.747Z,17.26
2022-09-12T09:08:22.635Z,17.34
2022-09-12T09:11:20.855Z,17.37
2022-09-12T09:14:17.150Z,17.49
2022-09-12T09:16:46.628Z,17.57
2022-09-12T09:19:24.055Z,17.60
2022-09-12T09:21:58.782Z,17.75
2022-09-12T09:24:33.874Z,17.92
2022-09-12T09:27:39.399Z,17.94
2022-09-12T09:30:15.276Z,18.05
2022-09-12T09:32:42.837Z,18.17
2022-09-12T09:35:52.358Z,18.17
2022-09-12T09:38:24.604Z,18.31
2022-09-12T09:41:07.087Z,18.40
2022-09-12T09:43:33.634Z,18.50
2022-09-12T09:46:00.453Z,18.57
2022-09-12T09:48:31.443Z,18.71
2022-09-12T09:51:01.775Z,18.75
2022-09-12T09:53:47.663Z,18.88
2022-09-12T09:56:33.272Z,19.01
2022-09-12T09:59:19.988Z,19.08
2022-09-12T10:01:51.666Z,19.09
2022-09-12T10:04:24.735Z,19.11
2022-09-12T10:06:53.131Z,19.21
2022-09-12T10:09:24.537Z,19.27
2022-09-12T10:11:51.803Z,19.35
2022-09-12T10:14:27.262Z,19.43
2022-09-12T10:16:53.787Z,19.58
2022-09-12T10:19:34.091Z,19.61
2022-09-12T10:22:02.167Z,19.84
2022-09-12T10:24:34.162Z,19.84
2022-09-12T10:27:12.616Z,19.94
2022-09-12T10:29:45.890Z,20.02
2022-09-12T10:32:15.937Z,20.04
2022-09-12T10:34:44.988Z,20.12
2022-09-12T10:37:23.245Z,20.17
2022-09-12T10:39:57.009Z,20.35
2022-09-12T10:42:46.466Z,20.39
2022-09-12T10:45:30.694Z,20.38
2022-09-12T10:48:06.880Z,20.60
2022-09-12T10:50:41.513Z,20.68
2022-09-12T10:53:22.961Z,20.75
2022-09-12T10:56:10.571Z,20.88
2022-09-12T10:58:55.779Z,21.02
2022-09-12T11:01:25.117Z,21.03
2022-09-12T11:04:17.865Z,21.09
2022-09-12T11:07:10.658Z,21.29
2022-09-12T11:09:49.287Z,21.29
2022-09-12T11:12:41.116Z,21.36
2022-09-12T11:15:25.859Z,21.52
2022-09-12T11:18:03.928Z,21.63
2022-09-12T11:20:48.320Z,21.74
2022-09-12T11:23:17.686Z,21.85
2022-09-12T11:25:59.924Z,21.94
2022-09-12T11:28:57.458Z,22.13
2022-09-12T11:31:42.640Z,22.10
2022-09-12T11:34:10.872Z,22.14
2022-09-12T11:37:18.223Z,22.27
2022-09-12T11:39:52.281Z,22.33
2022-09-12T11:42:34.913Z,22.37
2022-09-12T11:45:10.233Z,22.44
2022-09-12T11:47:37.307Z,22.53
2022-09-12T11:50:15.905Z,22.74
2022-09-12T11:52:42.379Z,22.64
2022-09-12T11:55:17.359Z,22.72
2022-09-12T11:57:50.981Z,22.82
2022-09-12T12:00:20.574Z,22.93
2022-09-12T12:03:00.813Z,23.02
2022-09-12T12:05:52.096Z,23.08
2022-09-12T12:08:20.618Z,23.18
2022-09-12T12:10:56.774Z,23.27
2022-09-12T12:13:29.595Z,23.31
2022-09-12T12:16:00.701Z,23.33
2022-09-12T12:18:30.195Z,23.49
2022-09-12T12:21:16.119Z,23.48
2022-09-12T12:24:07.679Z,23.51
2022-09-12T12:26:40.439Z,23.57
2022-09-12T12:29:16.621Z,23.63
2022-09-12T12:31:58.472Z,23.73
2022-09-12T12:34:36.477Z,23.89
2022-09-12T12:37:21.448Z,23.89
2022-09-12T12:39:48.065Z,23.95
2022-09-12T12:42:36.088Z,24.02
2022-09-12T12:45:08.530Z,23.97
2022-09-12T12:47:37.870Z,24.27
2022-09-12T12:50:06.304Z,24.46
2022-09-12T12:52:41.777Z,24.31
2022-09-12T12:55:20.465Z,24.40
2022-09-12T12:57:49.898Z,24.57
2022-09-12T13:00:28.066Z,24.58
2022-09-12T13:03:06.589Z,24.74
2022-09-12T13:05:46.140Z,24.81
2022-09-12T13:08:18.611Z,24.79
2022-09-12T13:10:54.483Z,24.85
2022-09-12T13:13:28.909Z,24.97
2022-09-12T13:15:55.483Z,25.04
2022-09-12T13:18:29.312Z,25.26
2022-09-12T13:21:01.210Z,25.21
2022-09-12T13:23:30.375Z,25.08
2022-09-12T13:25:59.085Z,25.16
2022-09-12T13:28:26.672Z,25.27
2022-09-12T13:31:00.988Z,25.26
2022-09-12T13:33:35.894Z,25.30
2022-09-12T13:36:20.504Z,25.42
2022-09-12T13:39:03.255Z,25.54
2022-09-12T13:41:44.844Z,25.54
2022-09-12T13:44:16.521Z,25.65
2022-09-12T13:46:43.064Z,25.54
2022-09-12T13:49:34.208Z,25.66
2022-09-12T13:52:03.692Z,25.53
2022-09-12T13:54:31.592Z,25.64
2022-09-12T13:56:59.657Z,25.63
2022-09-12T13:59:26.243Z,25.65
2022-09-12T14:01:52.826Z,25.87
2022-09-12T14:04:37.772Z,25.95
2022-09-12T14:07:14.023Z,26.05
2022-09-12T14:09:47.004Z,26.11
2022-09-12T14:12:29.417Z,25.92
2022-09-12T14:14:56.945Z,25.84
2022-09-12T14:17:36.051Z,25.82
2022-09-12T14:20:06.924Z,25.52
2022-09-12T14:22:35.721Z,25.63
2022-09-12T14:25:02.773Z,25.73
2022-09-12T14:27:43.025Z,25.75
2022-09-12T14:30:25.149Z,26.07
2022-09-12T14:33:09.714Z,26.19
2022-09-12T14:35:49.274Z,26.30
2022-09-12T14:38:15.700Z,26.36
2022-09-12T14:40:52.175Z,26.54
2022-09-12T14:43:26.284Z,26.44
2022-09-12T14:46:02.009Z,26.41
2022-09-12T14:48:32.907Z,26.51
2022-09-12T14:50:59.780Z,26.53
2022-09-12T14:53:35.612Z,26.78
2022-09-12T14:56:05.085Z,26.80
2022-09-12T14:58:31.785Z,26.80
2022-09-12T15:01:07.191Z,26.82
2022-09-12T15:03:49.443Z,26.93
2022-09-12T15:06:23.560Z,27.00
2022-09-12T15:08:52.232Z,27.03
2022-09-12T15:11:18.782Z,27.17
2022-09-12T15:13:45.343Z,27.29
2022-09-12T15:16:12.094Z,27.30
2022-09-12T15:18:38.742Z,27.33
2022-09-12T15:21:10.662Z,27.22
2022-09-12T15:23:44.270Z,27.31
2022-09-12T15:26:13.980Z,27.49
2022-09-12T15:28:40.617Z,27.46
2022-09-12T15:31:30.718Z,27.36
2022-09-12T15:33:59.953Z,27.55
2022-09-12T15:36:26.547Z,27.43
2022-09-12T15:38:53.144Z,27.37
2022-09-12T15:41:22.816Z,27.34
2022-09-12T15:43:49.578Z,27.49
2022-09-12T15:46:17.825Z,27.30
2022-09-12T15:48:44.608Z,27.38
2022-09-12T15:51:15.446Z,27.50
2022-09-12T15:53:43.147Z,27.69
2022-09-12T15:56:09.857Z,27.59
2022-09-12T15:58:36.377Z,27.63
2022-09-12T16:01:05.091Z,27.55
2022-09-12T16:03:32.289Z,27.52
2022-09-12T16:06:01.528Z,27.55
2022-09-12T16:08:31.271Z,27.60
2022-09-12T16:11:02.689Z,27.65
2022-09-12T16:13:29.229Z,27.80
2022-09-12T16:15:59.789Z,27.63
2022-09-12T16:18:27.383Z,27.48
2022-09-12T16:20:54.774Z,27.58
2022-09-12T16:23:22.064Z,27.61
2022-09-12T16:25:59.091Z,27.54
2022-09-12T16:28:25.982Z,27.53
2022-09-12T16:31:01.079Z,27.67
2022-09-12T16:33:28.696Z,27.67
2022-09-12T16:36:03.930Z,27.64
2022-09-12T16:38:31.139Z,27.41
2022-09-12T16:41:01.818Z,27.29
2022-09-12T16:43:29.177Z,27.17
2022-09-12T16:46:13.626Z,27.09
2022-09-12T16:48:49.380Z,27.15
2022-09-12T16:51:20.176Z,27.03
2022-09-12T16:53:46.883Z,26.86
2022-09-12T16:56:13.416Z,26.68
2022-09-12T16:58:42.166Z,26.58
2022-09-12T17:01:11.809Z,26.67
2022-09-12T17:03:38.767Z,26.72
2022-09-12T17:06:10.843Z,26.64
2022-09-12T17:08:42.762Z,26.62
2022-09-12T17:11:20.882Z,26.58
2022-09-12T17:14:04.547Z,26.50
2022-09-12T17:16:33.603Z,26.39
2022-09-12T17:19:00.095Z,26.49
2022-09-12T17:21:26.609Z,26.33
2022-09-12T17:23:53.149Z,26.29
2022-09-12T17:26:20.653Z,26.27
2022-09-12T17:28:47.233Z,26.15
2022-09-12T17:31:14.788Z,26.22
2022-09-12T17:33:42.020Z,26.18
2022-09-12T17:36:15.169Z,26.06
2022-09-12T17:38:43.397Z,26.01
2022-09-12T17:41:17.400Z,26.01
2022-09-12T17:43:50.701Z,25.98
2022-09-12T17:46:18.268Z,25.86
2022-09-12T17:48:44.940Z,25.79
2022-09-12T17:51:14.074Z,25.73
2022-09-12T17:53:41.438Z,25.66
2022-09-12T17:56:08.581Z,25.66
2022-09-12T17:58:35.764Z,25.58
2022-09-12T18:01:26.094Z,25.51
2022-09-12T18:03:56.928Z,25.44
2022-09-12T18:06:24.011Z,25.48
2022-09-12T18:08:50.600Z,25.33
2022-09-12T18:11:17.522Z,25.35
2022-09-12T18:13:44.153Z,25.40
2022-09-12T18:16:12.655Z,25.33
2022-09-12T18:18:39.386Z,25.30
2022-09-12T18:21:07.535Z,25.26
2022-09-12T18:23:34.490Z,25.23
2022-09-12T18:26:09.044Z,25.12
2022-09-12T18:28:37.572Z,25.05
2022-09-12T18:31:04.879Z,24.84
2022-09-12T18:33:31.977Z,24.97
2022-09-12T18:36:03.943Z,24.88
2022-09-12T18:38:31.059Z,24.82
2022-09-12T18:41:09.621Z,24.77
2022-09-12T18:43:36.391Z,24.74
2022-09-12T18:46:07.503Z,24.58
2022-09-12T18:48:34.317Z,24.66
2022-09-12T18:51:31.835Z,24.59
2022-09-12T18:54:00.717Z,24.50
2022-09-12T18:56:32.443Z,24.43
2022-09-12T18:59:00.021Z,24.39
2022-09-12T19:01:29.156Z,24.30
2022-09-12T19:03:56.171Z,24.06
2022-09-12T19:06:30.398Z,24.16
2022-09-12T19:08:58.631Z,24.13
2022-09-12T19:11:27.325Z,24.13
2022-09-12T19:13:55.294Z,23.97
2022-09-12T19:16:24.306Z,23.94
2022-09-12T19:18:52.269Z,23.86
2022-09-12T19:21:24.477Z,23.89
2022-09-12T19:23:52.354Z,23.73
2022-09-12T19:26:20.661Z,23.81
2022-09-12T19:28:47.417Z,23.77
2022-09-12T19:31:18.849Z,23.60
2022-09-12T19:33:45.728Z,23.59
2022-09-12T19:36:34.043Z,23.45
2022-09-12T19:39:00.560Z,23.51
2022-09-12T19:41:27.038Z,23.51
2022-09-12T19:43:55.421Z,23.46
2022-09-12T19:46:24.554Z,23.48
2022-09-12T19:48:52.388Z,23.38
2022-09-12T19:51:20.431Z,23.32
2022-09-12T19:53:48.411Z,23.43
2022-09-12T19:56:14.958Z,23.37
2022-09-12T19:58:46.720Z,23.27
2022-09-12T20:01:31.526Z,23.40
2022-09-12T20:03:58.595Z,23.34
2022-09-12T20:06:26.018Z,23.23
2022-09-12T20:08:52.567Z,23.24
2022-09-12T20:11:20.734Z,23.18
2022-09-12T20:13:47.631Z,23.22
2022-09-12T20:16:22.154Z,23.12
2022-09-12T20:18:57.319Z,23.08
2022-09-12T20:21:31.460Z,23.06
2022-09-12T20:24:05.730Z,22.97
2022-09-12T20:26:32.221Z,22.95
2022-09-12T20:28:59.619Z,22.92
2022-09-12T20:31:26.302Z,22.95
2022-09-12T20:33:52.785Z,22.91
2022-09-12T20:36:20.895Z,22.84
2022-09-12T20:38:49.636Z,22.78
2022-09-12T20:41:16.475Z,22.67
2022-09-12T20:43:43.018Z,22.64
2022-09-12T20:46:10.992Z,22.56
2022-09-12T20:48:38.436Z,22.58
2022-09-12T20:51:05.347Z,22.56
2022-09-12T20:53:35.090Z,22.50
2022-09-12T20:56:02.731Z,22.47
2022-09-12T20:58:29.183Z,22.39
2022-09-12T21:00:55.703Z,22.33
2022-09-12T21:03:22.463Z,22.38
2022-09-12T21:05:48.935Z,22.23
2022-09-12T21:08:15.396Z,22.25
2022-09-12T21:10:45.183Z,22.30
2022-09-12T21:13:12.505Z,22.26
2022-09-12T21:15:40.138Z,22.28
2022-09-12T21:18:06.886Z,22.23
2022-09-12T21:20:33.542Z,22.23
2022-09-12T21:23:00.225Z,22.20
2022-09-12T21:25:28.861Z,22.15
2022-09-12T21:27:55.332Z,22.17
2022-09-12T21:30:22.283Z,22.16
2022-09-12T21:32:48.821Z,22.15
2022-09-12T21:35:15.362Z,22.25
2022-09-12T21:37:41.810Z,22.18
2022-09-12T21:40:08.486Z,22.23
2022-09-12T21:42:35.040Z,22.20
2022-09-12T21:45:01.584Z,22.15
2022-09-12T21:47:28.088Z,22.11
2022-09-12T21:49:55.253Z,22.14
2022-09-12T21:52:21.936Z,22.08
2022-09-12T21:54:48.408Z,22.09
2022-09-12T21:57:14.855Z,21.97
2022-09-12T21:59:41.391Z,22.02
2022-09-12T22:02:08.633Z,22.01
2022-09-12T22:04:35.145Z,22.00
2022-09-12T22:07:02.040Z,21.86
2022-09-12T22:09:28.512Z,21.97
2022-09-12T22:11:55.539Z,21.88
2022-09-12T22:14:21.980Z,21.66
2022-09-12T22:16:49.431Z,21.72
2022-09-12T22:19:15.947Z,21.77
2022-09-12T22:22:02.373Z,21.85
2022-09-12T22:24:29.018Z,21.91
2022-09-12T22:26:57.122Z,21.85
2022-09-12T22:29:23.571Z,21.85
2022-09-12T22:31:50.293Z,21.84
2022-09-12T22:34:16.760Z,21.85
2022-09-12T22:36:43.323Z,21.78
2022-09-12T22:39:09.849Z,21.75
2022-09-12T22:41:36.387Z,21.79
2022-09-12T22:44:03.160Z,21.76
2022-09-12T22:46:30.393Z,21.74
2022-09-12T22:48:56.911Z,21.65
2022-09-12T22:51:23.843Z,21.70
2022-09-12T22:53:51.361Z,21.61
2022-09-12T22:56:18.097Z,21.57
2022-09-12T22:58:44.638Z,21.58
2022-09-12T23:01:11.586Z,21.60
2022-09-12T23:03:38.682Z,21.65
2022-09-12T23:06:05.988Z,21.59
2022-09-12T23:08:34.929Z,21.47
2022-09-12T23:11:11.726Z,21.48
2022-09-12T23:13:38.904Z,21.45
2022-09-12T23:16:07.794Z,21.43
2022-09-12T23:18:36.125Z,21.42
2022-09-12T23:21:13.180Z,21.43
2022-09-12T23:23:39.916Z,21.32
2022-09-12T23:26:11.172Z,21.28
2022-09-12T23:28:38.572Z,21.35
2022-09-12T23:31:05.621Z,21.32
2022-09-12T23:33:32.512Z,21.32
2022-09-12T23:36:04.899Z,21.28
2022-09-12T23:38:32.400Z,21.28
2022-09-12T23:40:59.017Z,21.31
2022-09-12T23:43:26.233Z,21.22
2022-09-12T23:45:52.861Z,21.18
2022-09-12T23:48:19.836Z,21.17
2022-09-12T23:50:47.360Z,21.09
2022-09-12T23:53:15.648Z,21.08
2022-09-12T23:55:42.704Z,21.02
2022-09-12T23:58:09.504Z,21.01
